createdAt,value
2022-10-29T00:00:12.184Z,8.18
2022-10-29T00:00:24.099Z,9.23
2022-10-29T00:00:36.009Z,10.38
2022-10-29T00:00:52.095Z,13.30
2022-10-29T00:01:04.086Z,14.82
2022-10-29T00:01:16.055Z,11.95
2022-10-29T00:01:28.065Z,9.13
2022-10-29T00:01:40.064Z,8.70
2022-10-29T00:01:52.085Z,10.32
2022-10-29T00:02:04.137Z,9.98
2022-10-29T00:02:16.088Z,11.07
2022-10-29T00:02:28.210Z,10.98
2022-10-29T00:02:40.228Z,9.50
2022-10-29T00:02:52.308Z,8.50
2022-10-29T00:03:04.489Z,10.25
2022-10-29T00:03:16.548Z,10.93
2022-10-29T00:03:28.567Z,11.60
2022-10-29T00:03:40.479Z,12.73
2022-10-29T00:03:52.474Z,13.25
2022-10-29T00:04:04.519Z,11.88
2022-10-29T00:04:16.515Z,9.75
2022-10-29T00:04:28.526Z,8.73
2022-10-29T00:04:40.396Z,9.85
2022-10-29T00:04:52.283Z,11.02
2022-10-29T00:05:04.422Z,10.80
2022-10-29T00:05:16.478Z,12.27
2022-10-29T00:05:28.369Z,12.02
2022-10-29T00:05:40.301Z,10.30
2022-10-29T00:05:56.710Z,9.13
2022-10-29T00:06:11.605Z,10.23
2022-10-29T00:06:23.533Z,9.65
2022-10-29T00:06:35.734Z,9.48
2022-10-29T00:07:05.641Z,8.65
2022-10-29T00:07:17.561Z,8.98
2022-10-29T00:07:29.464Z,10.50
2022-10-29T00:07:41.426Z,10.63
2022-10-29T00:07:53.716Z,12.55
2022-10-29T00:08:05.984Z,13.68
2022-10-29T00:08:17.884Z,13.57
2022-10-29T00:08:32.066Z,10.90
2022-10-29T00:08:44.044Z,9.55
2022-10-29T00:08:56.089Z,10.93
2022-10-29T00:09:08.006Z,11.77
2022-10-29T00:09:19.897Z,11.50
2022-10-29T00:09:31.765Z,11.38
2022-10-29T00:09:43.656Z,10.50
2022-10-29T00:09:55.549Z,9.90
2022-10-29T00:10:08.450Z,10.82
2022-10-29T00:10:20.412Z,11.77
2022-10-29T00:10:32.352Z,10.82
2022-10-29T00:10:44.265Z,11.38
2022-10-29T00:11:04.365Z,10.25
2022-10-29T00:11:19.458Z,9.82
2022-10-29T00:11:31.395Z,9.65
2022-10-29T00:11:43.275Z,11.75
2022-10-29T00:11:55.182Z,12.40
2022-10-29T00:12:07.542Z,10.27
2022-10-29T00:12:19.517Z,9.07
2022-10-29T00:12:31.544Z,9.37
2022-10-29T00:12:43.438Z,9.10
2022-10-29T00:12:55.617Z,7.90
2022-10-29T00:13:07.490Z,7.78
2022-10-29T00:13:36.025Z,9.27
2022-10-29T00:13:53.074Z,8.93
2022-10-29T00:14:09.748Z,9.75
2022-10-29T00:14:21.862Z,12.55
2022-10-29T00:14:34.024Z,11.75
2022-10-29T00:14:46.227Z,7.80
2022-10-29T00:14:58.263Z,8.82
2022-10-29T00:15:11.160Z,9.98
2022-10-29T00:15:24.490Z,10.32
2022-10-29T00:15:42.300Z,8.55
2022-10-29T00:16:00.516Z,11.32
2022-10-29T00:16:20.123Z,12.73
2022-10-29T00:16:37.503Z,10.10
2022-10-29T00:16:56.904Z,13.20
2022-10-29T00:17:08.991Z,12.48
2022-10-29T00:17:23.056Z,10.23
2022-10-29T00:17:35.152Z,9.25
2022-10-29T00:17:47.271Z,9.23
2022-10-29T00:17:59.478Z,9.70
2022-10-29T00:18:11.674Z,8.70
2022-10-29T00:18:23.887Z,8.93
2022-10-29T00:18:36.023Z,10.00
2022-10-29T00:18:49.571Z,9.63
2022-10-29T00:19:01.695Z,9.23
2022-10-29T00:19:13.782Z,10.20
2022-10-29T00:19:27.794Z,10.55
2022-10-29T00:19:39.979Z,11.02
2022-10-29T00:19:52.067Z,10.45
2022-10-29T00:20:05.117Z,11.00
2022-10-29T00:20:20.838Z,11.95
2022-10-29T00:20:32.905Z,11.57
2022-10-29T00:20:44.977Z,11.57
2022-10-29T00:21:01.370Z,10.82
2022-10-29T00:21:21.108Z,11.35
2022-10-29T00:21:34.663Z,11.43
2022-10-29T00:21:46.777Z,9.32
2022-10-29T00:21:58.943Z,9.18
2022-10-29T00:22:11.004Z,9.95
2022-10-29T00:22:23.091Z,10.35
2022-10-29T00:22:36.338Z,9.02
2022-10-29T00:22:48.588Z,9.00
2022-10-29T00:23:09.331Z,7.28
2022-10-29T00:23:22.735Z,8.07
2022-10-29T00:23:35.268Z,10.57
2022-10-29T00:23:48.131Z,11.82
2022-10-29T00:24:00.265Z,12.70
2022-10-29T00:24:12.492Z,9.63
2022-10-29T00:24:24.622Z,7.85
2022-10-29T00:24:38.137Z,8.68
2022-10-29T00:24:50.306Z,8.85
2022-10-29T00:25:04.629Z,7.15
2022-10-29T00:25:16.870Z,7.88
2022-10-29T00:25:28.945Z,9.07
2022-10-29T00:25:41.094Z,10.57
2022-10-29T00:26:02.432Z,11.00
2022-10-29T00:26:15.954Z,8.60
2022-10-29T00:26:30.185Z,10.75
2022-10-29T00:26:42.310Z,10.27
2022-10-29T00:26:58.701Z,8.40
2022-10-29T00:27:10.877Z,9.52
2022-10-29T00:27:23.115Z,8.98
2022-10-29T00:27:35.224Z,7.22
2022-10-29T00:27:48.411Z,6.20
2022-10-29T00:28:00.600Z,8.10
2022-10-29T00:28:12.742Z,9.52
2022-10-29T00:28:25.976Z,12.50
2022-10-29T00:28:38.598Z,11.25
2022-10-29T00:28:54.925Z,9.45
2022-10-29T00:29:07.060Z,9.57
2022-10-29T00:29:20.495Z,10.43
2022-10-29T00:29:32.595Z,10.18
2022-10-29T00:29:44.685Z,9.23
2022-10-29T00:29:57.025Z,10.27
2022-10-29T00:30:09.871Z,9.60
2022-10-29T00:30:21.973Z,7.78
2022-10-29T00:30:37.310Z,5.95
2022-10-29T00:30:49.403Z,6.80
2022-10-29T00:31:15.156Z,7.40
2022-10-29T00:31:27.431Z,9.98
2022-10-29T00:31:39.617Z,8.85
2022-10-29T00:31:56.350Z,8.82
2022-10-29T00:32:10.064Z,10.68
2022-10-29T00:32:24.442Z,10.20
2022-10-29T00:32:36.487Z,8.90
2022-10-29T00:32:48.708Z,7.00
2022-10-29T00:33:01.910Z,7.30
2022-10-29T00:33:14.032Z,6.70
2022-10-29T00:33:26.037Z,8.90
2022-10-29T00:33:38.459Z,9.48
2022-10-29T00:33:52.344Z,9.18
2022-10-29T00:34:04.427Z,7.50
2022-10-29T00:34:16.498Z,7.05
2022-10-29T00:34:29.457Z,9.00
2022-10-29T00:34:41.524Z,10.32
2022-10-29T00:34:55.868Z,10.32
2022-10-29T00:35:09.438Z,9.63
2022-10-29T00:35:21.586Z,8.90
2022-10-29T00:35:33.728Z,7.43
2022-10-29T00:35:58.185Z,7.80
2022-10-29T00:36:17.803Z,7.88
2022-10-29T00:36:30.468Z,8.20
2022-10-29T00:36:43.965Z,9.45
2022-10-29T00:36:56.132Z,8.85
2022-10-29T00:37:08.182Z,7.88
2022-10-29T00:37:20.176Z,5.47
2022-10-29T00:37:33.461Z,5.10
2022-10-29T00:37:45.520Z,5.45
2022-10-29T00:37:57.814Z,7.78
2022-10-29T00:38:13.139Z,8.98
2022-10-29T00:38:26.436Z,9.45
2022-10-29T00:38:39.032Z,7.47
2022-10-29T00:38:51.305Z,6.88
2022-10-29T00:39:03.528Z,7.38
2022-10-29T00:39:16.571Z,7.07
2022-10-29T00:39:29.569Z,8.40
2022-10-29T00:39:41.623Z,7.75
2022-10-29T00:39:56.735Z,7.22
2022-10-29T00:40:09.585Z,7.70
2022-10-29T00:40:21.707Z,8.45
2022-10-29T00:40:38.468Z,9.13
2022-10-29T00:40:50.787Z,8.90
2022-10-29T00:41:04.727Z,8.63
2022-10-29T00:41:21.478Z,8.45
2022-10-29T00:41:33.547Z,8.00
2022-10-29T00:41:45.620Z,9.65
2022-10-29T00:41:57.671Z,11.80
2022-10-29T00:42:15.747Z,13.40
2022-10-29T00:42:27.927Z,8.23
2022-10-29T00:42:39.996Z,7.70
2022-10-29T00:42:52.026Z,11.13
2022-10-29T00:43:18.467Z,11.77
2022-10-29T00:43:36.616Z,7.47
2022-10-29T00:43:51.479Z,8.30
2022-10-29T00:44:18.624Z,10.02
2022-10-29T00:44:38.989Z,8.88
2022-10-29T00:44:51.300Z,8.73
2022-10-29T00:45:03.603Z,8.15
2022-10-29T00:45:20.897Z,7.57
2022-10-29T00:45:32.980Z,6.82
2022-10-29T00:45:54.695Z,7.10
2022-10-29T00:46:13.983Z,7.65
2022-10-29T00:46:33.938Z,6.70
2022-10-29T00:46:52.555Z,8.73
2022-10-29T00:47:18.561Z,8.35
2022-10-29T00:47:34.592Z,9.27
2022-10-29T00:47:50.954Z,10.52
2022-10-29T00:48:03.111Z,10.82
2022-10-29T00:48:15.555Z,9.75
2022-10-29T00:48:29.827Z,8.15
2022-10-29T00:48:51.698Z,7.03
2022-10-29T00:49:03.916Z,10.55
2022-10-29T00:49:17.719Z,9.77
2022-10-29T00:49:32.775Z,8.70
2022-10-29T00:49:47.945Z,9.23
2022-10-29T00:50:08.565Z,7.70
2022-10-29T00:50:24.195Z,7.70
2022-10-29T00:50:36.373Z,10.50
2022-10-29T00:50:53.586Z,9.65
2022-10-29T00:51:08.956Z,10.63
2022-10-29T00:51:21.455Z,9.20
2022-10-29T00:51:34.390Z,6.68
2022-10-29T00:51:47.674Z,6.50
2022-10-29T00:52:03.113Z,7.27
2022-10-29T00:52:17.748Z,9.80
2022-10-29T00:52:34.273Z,10.18
2022-10-29T00:52:49.763Z,7.82
2022-10-29T00:53:02.487Z,8.70
2022-10-29T00:53:19.747Z,9.27
2022-10-29T00:53:37.419Z,7.10
2022-10-29T00:53:55.857Z,7.18
2022-10-29T00:54:12.542Z,8.65
2022-10-29T00:54:24.617Z,9.00
2022-10-29T00:54:40.906Z,9.50
2022-10-29T00:54:55.003Z,8.10
2022-10-29T00:55:09.007Z,6.40
2022-10-29T00:55:21.262Z,7.07
2022-10-29T00:55:33.332Z,10.25
2022-10-29T00:55:45.836Z,11.38
2022-10-29T00:55:58.902Z,9.63
2022-10-29T00:56:11.717Z,9.82
2022-10-29T00:56:26.166Z,10.52
2022-10-29T00:56:41.853Z,9.00
2022-10-29T00:57:00.701Z,7.85
2022-10-29T00:57:18.824Z,9.52
2022-10-29T00:57:36.958Z,9.75
2022-10-29T00:57:53.075Z,9.65
2022-10-29T00:58:05.419Z,11.98
2022-10-29T00:58:17.961Z,12.02
2022-10-29T00:58:30.134Z,8.95
2022-10-29T00:58:43.230Z,7.70
2022-10-29T00:58:55.698Z,9.23
2022-10-29T00:59:09.348Z,10.55
2022-10-29T00:59:22.983Z,9.05
2022-10-29T00:59:35.282Z,7.63
2022-10-29T01:00:07.420Z,9.10
2022-10-29T01:00:21.156Z,10.73
2022-10-29T01:00:33.215Z,9.98
2022-10-29T01:00:45.439Z,9.13
2022-10-29T01:00:57.641Z,7.72
2022-10-29T01:01:09.979Z,6.90
2022-10-29T01:01:23.593Z,5.82
2022-10-29T01:01:37.621Z,9.13
2022-10-29T01:01:51.244Z,9.63
2022-10-29T01:02:03.786Z,8.98
2022-10-29T01:02:17.646Z,10.30
2022-10-29T01:02:31.995Z,10.20
2022-10-29T01:02:47.326Z,8.70
2022-10-29T01:02:59.652Z,7.65
2022-10-29T01:03:12.109Z,8.27
2022-10-29T01:03:24.198Z,10.20
2022-10-29T01:03:38.547Z,10.73
2022-10-29T01:03:52.771Z,12.27
2022-10-29T01:04:05.381Z,11.63
2022-10-29T01:04:18.600Z,9.80
2022-10-29T01:04:31.140Z,7.72
2022-10-29T01:04:43.471Z,8.27
2022-10-29T01:04:55.661Z,10.48
2022-10-29T01:05:09.216Z,11.27
2022-10-29T01:05:25.111Z,10.70
2022-10-29T01:05:37.699Z,9.80
2022-10-29T01:05:51.567Z,9.93
2022-10-29T01:06:03.828Z,11.15
2022-10-29T01:06:15.967Z,11.18
2022-10-29T01:06:30.178Z,10.57
2022-10-29T01:06:43.816Z,8.10
2022-10-29T01:06:56.293Z,10.73
2022-10-29T01:07:08.488Z,10.07
2022-10-29T01:07:22.335Z,7.15
2022-10-29T01:07:34.826Z,7.45
2022-10-29T01:07:47.489Z,8.52
2022-10-29T01:08:00.326Z,10.95
2022-10-29T01:08:14.215Z,9.43
2022-10-29T01:08:29.647Z,8.98
2022-10-29T01:08:41.699Z,7.95
2022-10-29T01:08:53.926Z,6.78
2022-10-29T01:09:07.526Z,6.28
2022-10-29T01:09:19.619Z,6.63
2022-10-29T01:09:31.731Z,7.82
2022-10-29T01:09:43.985Z,9.85
2022-10-29T01:09:56.329Z,11.15
2022-10-29T01:10:09.357Z,12.10
2022-10-29T01:10:33.257Z,12.07
2022-10-29T01:10:45.308Z,9.80
2022-10-29T01:11:12.492Z,9.68
2022-10-29T01:11:58.327Z,10.60
2022-10-29T01:12:13.130Z,8.57
2022-10-29T01:12:51.114Z,8.95
2022-10-29T01:13:18.634Z,10.85
2022-10-29T01:13:40.647Z,10.73
2022-10-29T01:14:17.544Z,10.30
2022-10-29T01:14:52.591Z,9.07
2022-10-29T01:15:16.048Z,9.73
2022-10-29T01:15:44.629Z,10.93
2022-10-29T01:16:09.543Z,9.77
2022-10-29T01:16:33.063Z,9.95
2022-10-29T01:17:17.604Z,8.63
2022-10-29T01:17:51.604Z,8.13
2022-10-29T01:18:06.481Z,10.43
2022-10-29T01:18:24.706Z,9.48
2022-10-29T01:18:47.665Z,8.48
2022-10-29T01:19:12.917Z,9.45
2022-10-29T01:19:49.662Z,11.32
2022-10-29T01:20:23.191Z,8.15
2022-10-29T01:20:44.058Z,9.75
2022-10-29T01:21:27.683Z,11.88
2022-10-29T01:21:43.545Z,11.57
2022-10-29T01:22:33.551Z,9.48
2022-10-29T01:23:00.348Z,9.07
2022-10-29T01:23:40.061Z,8.55
2022-10-29T01:24:03.937Z,11.65
2022-10-29T01:24:53.117Z,14.07
2022-10-29T01:25:29.449Z,11.07
2022-10-29T01:26:08.166Z,8.00
2022-10-29T01:26:47.372Z,6.70
2022-10-29T01:27:26.804Z,7.97
2022-10-29T01:27:51.560Z,8.43
2022-10-29T01:28:09.911Z,8.73
2022-10-29T01:28:41.747Z,9.15
2022-10-29T01:29:22.610Z,10.25
2022-10-29T01:30:00.375Z,6.90
2022-10-29T01:30:23.850Z,9.00
2022-10-29T01:31:07.402Z,9.27
2022-10-29T01:31:34.267Z,8.30
2022-10-29T01:31:54.063Z,6.53
2022-10-29T01:32:18.611Z,8.63
2022-10-29T01:32:50.291Z,9.68
2022-10-29T01:33:19.045Z,6.95
2022-10-29T01:33:44.086Z,10.43
2022-10-29T01:34:03.904Z,11.02
2022-10-29T01:34:34.367Z,8.10
2022-10-29T01:35:01.987Z,10.20
2022-10-29T01:35:40.595Z,8.02
2022-10-29T01:36:08.164Z,12.45
2022-10-29T01:36:33.742Z,11.75
2022-10-29T01:37:02.992Z,8.65
2022-10-29T01:37:22.386Z,7.13
2022-10-29T01:38:06.677Z,6.93
2022-10-29T01:38:34.651Z,10.98
2022-10-29T01:39:03.012Z,11.40
2022-10-29T01:39:27.428Z,8.02
2022-10-29T01:39:39.371Z,9.10
2022-10-29T01:40:00.819Z,9.20
2022-10-29T01:40:24.750Z,8.00
2022-10-29T01:41:03.130Z,8.30
2022-10-29T01:41:25.795Z,7.15
2022-10-29T01:41:55.614Z,6.55
2022-10-29T01:42:35.851Z,8.23
2022-10-29T01:42:57.871Z,7.22
2022-10-29T01:43:25.781Z,8.38
2022-10-29T01:43:47.628Z,8.85
2022-10-29T01:44:10.607Z,10.18
2022-10-29T01:44:42.755Z,6.85
2022-10-29T01:45:08.263Z,7.28
2022-10-29T01:45:42.013Z,7.70
2022-10-29T01:46:23.351Z,7.72
2022-10-29T01:46:35.328Z,7.45
2022-10-29T01:46:55.264Z,7.05
2022-10-29T01:47:21.688Z,7.10
2022-10-29T01:47:42.397Z,7.50
2022-10-29T01:47:58.720Z,5.80
2022-10-29T01:48:18.918Z,6.40
2022-10-29T01:48:37.303Z,8.60
2022-10-29T01:48:54.970Z,8.25
2022-10-29T01:49:14.134Z,9.15
2022-10-29T01:49:34.308Z,8.20
2022-10-29T01:49:53.624Z,9.43
2022-10-29T01:50:09.247Z,9.07
2022-10-29T01:50:23.493Z,7.32
2022-10-29T01:50:38.149Z,8.02
2022-10-29T01:50:55.313Z,7.95
2022-10-29T01:51:13.804Z,7.50
2022-10-29T01:51:31.043Z,8.27
2022-10-29T01:51:43.731Z,7.55
2022-10-29T01:51:58.193Z,8.82
2022-10-29T01:52:15.244Z,11.75
2022-10-29T01:52:31.065Z,11.98
2022-10-29T01:52:44.671Z,9.95
2022-10-29T01:52:57.287Z,9.18
2022-10-29T01:53:10.197Z,8.80
2022-10-29T01:53:23.507Z,7.57
2022-10-29T01:53:37.843Z,6.72
2022-10-29T01:53:52.103Z,7.75
2022-10-29T01:54:10.066Z,9.50
2022-10-29T01:54:22.113Z,8.60
2022-10-29T01:54:34.258Z,7.30
2022-10-29T01:54:47.750Z,6.05
2022-10-29T01:54:59.795Z,6.43
2022-10-29T01:55:16.638Z,7.45
2022-10-29T01:55:33.229Z,9.25
2022-10-29T01:55:46.454Z,8.43
2022-10-29T01:56:10.312Z,8.65
2022-10-29T01:56:22.405Z,7.82
2022-10-29T01:56:34.492Z,7.20
2022-10-29T01:56:58.762Z,7.03
2022-10-29T01:57:30.788Z,10.55
2022-10-29T01:57:43.967Z,5.55
2022-10-29T01:57:56.238Z,5.95
2022-10-29T01:58:11.576Z,6.18
2022-10-29T01:58:25.381Z,7.15
2022-10-29T01:58:38.289Z,8.27
2022-10-29T01:58:55.754Z,9.95
2022-10-29T01:59:22.948Z,10.13
2022-10-29T01:59:55.423Z,10.07
2022-10-29T02:00:14.633Z,6.72
2022-10-29T02:00:32.939Z,6.95
2022-10-29T02:00:54.108Z,8.05
2022-10-29T02:01:28.772Z,9.02
2022-10-29T02:01:59.510Z,6.57
2022-10-29T02:02:48.569Z,8.10
2022-10-29T02:03:14.482Z,8.65
2022-10-29T02:03:35.195Z,10.57
2022-10-29T02:04:01.163Z,8.98
2022-10-29T02:04:41.727Z,5.45
2022-10-29T02:05:20.842Z,9.60
2022-10-29T02:05:37.994Z,7.38
2022-10-29T02:05:50.008Z,10.15
2022-10-29T02:06:20.744Z,10.07
2022-10-29T02:07:14.981Z,6.82
2022-10-29T02:07:44.994Z,6.97
2022-10-29T02:07:59.599Z,8.13
2022-10-29T02:08:23.679Z,8.13
2022-10-29T02:08:35.741Z,7.55
2022-10-29T02:09:09.924Z,7.10
2022-10-29T02:09:32.541Z,6.47
2022-10-29T02:10:02.631Z,7.57
2022-10-29T02:10:38.283Z,6.65
2022-10-29T02:11:07.261Z,7.68
2022-10-29T02:11:45.325Z,8.23
2022-10-29T02:12:13.784Z,9.52
2022-10-29T02:12:31.623Z,8.30
2022-10-29T02:12:49.874Z,9.43
2022-10-29T02:13:02.205Z,8.02
2022-10-29T02:13:17.702Z,6.90
2022-10-29T02:13:39.276Z,6.32
2022-10-29T02:13:59.345Z,5.70
2022-10-29T02:14:26.005Z,7.05
2022-10-29T02:14:54.996Z,7.28
2022-10-29T02:15:17.927Z,10.90
2022-10-29T02:15:42.880Z,8.10
2022-10-29T02:15:57.111Z,5.50
2022-10-29T02:16:10.957Z,5.18
2022-10-29T02:16:25.055Z,7.65
2022-10-29T02:16:37.510Z,7.67
2022-10-29T02:16:49.993Z,6.07
2022-10-29T02:17:02.862Z,8.55
2022-10-29T02:17:14.913Z,9.57
2022-10-29T02:17:27.246Z,10.18
2022-10-29T02:17:39.459Z,8.63
2022-10-29T02:17:51.841Z,7.80
2022-10-29T02:18:06.762Z,8.50
2022-10-29T02:18:19.231Z,9.90
2022-10-29T02:18:31.267Z,9.20
2022-10-29T02:18:47.461Z,9.73
2022-10-29T02:19:00.354Z,11.93
2022-10-29T02:19:12.674Z,10.73
2022-10-29T02:19:30.609Z,10.05
2022-10-29T02:19:42.721Z,12.25
2022-10-29T02:19:54.789Z,10.77
2022-10-29T02:20:10.057Z,7.68
2022-10-29T02:20:22.100Z,5.40
2022-10-29T02:20:35.390Z,5.97
2022-10-29T02:20:47.843Z,10.07
2022-10-29T02:20:59.930Z,12.63
2022-10-29T02:21:16.120Z,11.55
2022-10-29T02:21:28.311Z,9.00
2022-10-29T02:21:42.449Z,7.50
2022-10-29T02:21:54.524Z,8.77
2022-10-29T02:22:06.648Z,10.57
2022-10-29T02:22:18.806Z,10.15
2022-10-29T02:22:30.836Z,9.48
2022-10-29T02:22:43.503Z,7.60
2022-10-29T02:22:55.815Z,7.32
2022-10-29T02:23:07.942Z,7.63
2022-10-29T02:23:19.976Z,8.00
2022-10-29T02:23:32.089Z,6.50
2022-10-29T02:23:44.584Z,5.47
2022-10-29T02:23:56.660Z,5.32
2022-10-29T02:24:08.955Z,6.40
2022-10-29T02:24:21.028Z,6.60
2022-10-29T02:24:33.147Z,6.20
2022-10-29T02:24:45.228Z,7.45
2022-10-29T02:24:57.303Z,7.72
2022-10-29T02:25:09.938Z,7.78
2022-10-29T02:25:22.645Z,7.65
2022-10-29T02:25:34.790Z,8.32
2022-10-29T02:25:47.004Z,8.52
2022-10-29T02:25:59.203Z,8.10
2022-10-29T02:26:11.619Z,9.63
2022-10-29T02:26:24.019Z,10.93
2022-10-29T02:26:36.085Z,7.32
2022-10-29T02:26:48.107Z,6.47
2022-10-29T02:27:00.244Z,7.88
2022-10-29T02:27:12.291Z,10.70
2022-10-29T02:27:24.379Z,10.02
2022-10-29T02:27:36.440Z,8.68
2022-10-29T02:27:48.505Z,8.25
2022-10-29T02:28:02.059Z,8.65
2022-10-29T02:28:14.287Z,6.93
2022-10-29T02:28:26.411Z,6.22
2022-10-29T02:28:38.848Z,8.27
2022-10-29T02:28:50.935Z,10.00
2022-10-29T02:29:03.131Z,9.65
2022-10-29T02:29:15.183Z,6.80
2022-10-29T02:29:27.445Z,8.10
2022-10-29T02:29:39.488Z,7.95
2022-10-29T02:29:51.647Z,9.52
2022-10-29T02:30:04.726Z,11.30
2022-10-29T02:30:17.629Z,10.30
2022-10-29T02:30:29.660Z,8.05
2022-10-29T02:30:41.731Z,6.75
2022-10-29T02:30:53.815Z,6.50
2022-10-29T02:31:06.017Z,6.35
2022-10-29T02:31:18.072Z,8.30
2022-10-29T02:31:30.119Z,9.25
2022-10-29T02:31:42.195Z,7.20
2022-10-29T02:31:54.223Z,7.40
2022-10-29T02:32:06.383Z,7.45
2022-10-29T02:32:18.519Z,7.80
2022-10-29T02:32:32.568Z,7.95
2022-10-29T02:32:44.745Z,7.43
2022-10-29T02:32:57.261Z,8.90
2022-10-29T02:33:09.526Z,8.57
2022-10-29T02:33:21.645Z,8.00
2022-10-29T02:33:33.785Z,6.80
2022-10-29T02:33:45.862Z,6.15
2022-10-29T02:33:57.881Z,5.63
2022-10-29T02:34:09.975Z,6.93
2022-10-29T02:34:22.009Z,9.98
2022-10-29T02:34:34.110Z,11.40
2022-10-29T02:34:46.138Z,10.70
2022-10-29T02:34:58.168Z,8.75
2022-10-29T02:35:10.608Z,8.02
2022-10-29T02:35:22.797Z,9.93
2022-10-29T02:35:34.844Z,8.30
2022-10-29T02:35:46.897Z,5.90
2022-10-29T02:35:59.089Z,6.18
2022-10-29T02:36:11.197Z,5.78
2022-10-29T02:36:23.233Z,5.72
2022-10-29T02:36:35.296Z,7.40
2022-10-29T02:36:47.358Z,8.10
2022-10-29T02:36:59.395Z,7.68
2022-10-29T02:37:11.472Z,7.35
2022-10-29T02:37:23.584Z,6.60
2022-10-29T02:37:35.954Z,5.57
2022-10-29T02:37:48.727Z,5.80
2022-10-29T02:38:00.869Z,5.53
2022-10-29T02:38:12.935Z,7.15
2022-10-29T02:38:25.121Z,9.45
2022-10-29T02:38:37.222Z,11.85
2022-10-29T02:38:49.270Z,10.60
2022-10-29T02:39:01.322Z,7.05
2022-10-29T02:39:13.438Z,8.95
2022-10-29T02:39:25.534Z,8.75
2022-10-29T02:39:37.652Z,9.10
2022-10-29T02:39:49.733Z,8.57
2022-10-29T02:40:02.215Z,8.45
2022-10-29T02:40:14.520Z,7.03
2022-10-29T02:40:26.531Z,7.47
2022-10-29T02:40:38.634Z,7.50
2022-10-29T02:40:52.149Z,7.40
2022-10-29T02:41:04.322Z,7.13
2022-10-29T02:41:16.386Z,8.15
2022-10-29T02:41:28.451Z,7.82
2022-10-29T02:41:40.595Z,7.38
2022-10-29T02:41:52.695Z,6.00
2022-10-29T02:42:04.911Z,7.15
2022-10-29T02:42:17.104Z,8.63
2022-10-29T02:42:29.214Z,9.63
2022-10-29T02:42:41.272Z,9.25
2022-10-29T02:42:53.573Z,9.32
2022-10-29T02:43:05.891Z,8.93
2022-10-29T02:43:29.909Z,9.95
2022-10-29T02:43:41.973Z,6.72
2022-10-29T02:43:54.054Z,8.07
2022-10-29T02:44:06.121Z,7.72
2022-10-29T02:44:20.255Z,9.05
2022-10-29T02:44:32.408Z,9.52
2022-10-29T02:44:44.415Z,6.57
2022-10-29T02:44:56.513Z,8.50
2022-10-29T02:45:08.964Z,8.18
2022-10-29T02:45:20.980Z,9.35
2022-10-29T02:45:34.905Z,7.70
2022-10-29T02:45:46.892Z,6.88
2022-10-29T02:46:20.424Z,6.20
2022-10-29T02:46:35.999Z,7.28
2022-10-29T02:46:48.079Z,8.50
2022-10-29T02:47:00.133Z,8.38
2022-10-29T02:47:12.319Z,7.47
2022-10-29T02:47:24.383Z,7.50
2022-10-29T02:47:36.420Z,7.97
2022-10-29T02:47:48.439Z,8.93
2022-10-29T02:48:02.023Z,9.13
2022-10-29T02:48:14.049Z,8.55
2022-10-29T02:48:26.092Z,6.28
2022-10-29T02:48:38.159Z,10.80
2022-10-29T02:48:50.604Z,12.30
2022-10-29T02:49:02.895Z,9.18
2022-10-29T02:49:14.971Z,6.07
2022-10-29T02:49:27.160Z,6.55
2022-10-29T02:49:39.240Z,6.03
2022-10-29T02:49:51.383Z,6.57
2022-10-29T02:50:03.655Z,7.53
2022-10-29T02:50:17.192Z,8.15
2022-10-29T02:50:40.454Z,7.47
2022-10-29T02:50:54.659Z,7.85
2022-10-29T02:51:08.923Z,6.97
2022-10-29T02:51:23.355Z,8.63
2022-10-29T02:51:45.059Z,9.60
2022-10-29T02:51:57.130Z,10.68
2022-10-29T02:52:12.907Z,9.85
2022-10-29T02:52:26.206Z,6.00
2022-10-29T02:52:40.933Z,6.27
2022-10-29T02:52:54.132Z,7.07
2022-10-29T02:53:10.485Z,8.38
2022-10-29T02:53:24.583Z,9.85
2022-10-29T02:53:37.140Z,8.07
2022-10-29T02:53:49.185Z,7.57
2022-10-29T02:54:01.215Z,9.57
2022-10-29T02:54:16.231Z,9.38
2022-10-29T02:54:28.282Z,9.68
2022-10-29T02:54:42.971Z,10.35
2022-10-29T02:54:59.628Z,11.93
2022-10-29T02:55:11.687Z,10.45
2022-10-29T02:55:26.323Z,8.02
2022-10-29T02:55:38.342Z,5.88
2022-10-29T02:55:50.414Z,6.30
2022-10-29T02:56:05.603Z,8.95
2022-10-29T02:56:20.063Z,12.30
2022-10-29T02:56:33.626Z,13.25
2022-10-29T02:56:45.718Z,11.40
2022-10-29T02:57:00.850Z,8.75
2022-10-29T02:57:12.908Z,6.43
2022-10-29T02:57:28.261Z,7.22
2022-10-29T02:57:43.428Z,7.93
2022-10-29T02:57:55.706Z,10.40
2022-10-29T02:58:13.888Z,10.15
2022-10-29T02:58:26.019Z,8.38
2022-10-29T02:58:38.770Z,11.52
2022-10-29T02:58:50.796Z,11.77
2022-10-29T02:59:09.142Z,9.23
2022-10-29T02:59:27.635Z,10.35
2022-10-29T02:59:39.972Z,9.00
2022-10-29T02:59:52.088Z,9.15
2022-10-29T03:00:05.727Z,7.57
2022-10-29T03:00:19.501Z,5.97
2022-10-29T03:00:34.627Z,5.20
2022-10-29T03:00:49.987Z,6.70
2022-10-29T03:01:02.255Z,6.85
2022-10-29T03:01:14.495Z,5.82
2022-10-29T03:01:27.980Z,7.95
2022-10-29T03:01:42.257Z,9.10
2022-10-29T03:01:56.538Z,8.52
2022-10-29T03:02:08.825Z,8.32
2022-10-29T03:02:21.064Z,7.50
2022-10-29T03:02:33.212Z,8.90
2022-10-29T03:02:48.415Z,9.55
2022-10-29T03:03:04.042Z,11.05
2022-10-29T03:03:16.189Z,9.48
2022-10-29T03:03:28.663Z,7.03
2022-10-29T03:03:40.825Z,6.57
2022-10-29T03:03:52.937Z,8.75
2022-10-29T03:04:05.116Z,9.73
2022-10-29T03:04:17.230Z,10.35
2022-10-29T03:04:31.650Z,8.23
2022-10-29T03:04:46.168Z,7.93
2022-10-29T03:04:58.207Z,7.47
2022-10-29T03:05:16.912Z,6.68
2022-10-29T03:05:29.041Z,9.10
2022-10-29T03:05:48.113Z,9.52
2022-10-29T03:06:01.456Z,10.05
2022-10-29T03:06:17.746Z,9.70
2022-10-29T03:06:29.851Z,8.73
2022-10-29T03:06:42.020Z,9.93
2022-10-29T03:06:56.259Z,9.27
2022-10-29T03:07:08.333Z,8.35
2022-10-29T03:07:20.475Z,7.10
2022-10-29T03:07:39.004Z,6.30
2022-10-29T03:07:51.041Z,7.10
2022-10-29T03:08:03.072Z,8.60
2022-10-29T03:08:19.010Z,9.18
2022-10-29T03:08:31.124Z,7.38
2022-10-29T03:08:44.059Z,7.72
2022-10-29T03:08:56.170Z,7.05
2022-10-29T03:09:08.355Z,6.20
2022-10-29T03:09:20.532Z,6.18
2022-10-29T03:09:32.519Z,9.68
2022-10-29T03:09:44.573Z,12.50
2022-10-29T03:09:59.604Z,11.60
2022-10-29T03:10:11.704Z,8.15
2022-10-29T03:10:23.723Z,8.05
2022-10-29T03:10:35.866Z,10.85
2022-10-29T03:10:47.971Z,11.52
2022-10-29T03:11:00.050Z,9.35
2022-10-29T03:11:12.353Z,9.13
2022-10-29T03:11:26.746Z,7.07
2022-10-29T03:11:38.851Z,7.97
2022-10-29T03:11:52.964Z,10.00
2022-10-29T03:12:05.260Z,8.13
2022-10-29T03:12:17.362Z,7.47
2022-10-29T03:12:29.381Z,7.75
2022-10-29T03:12:41.442Z,8.57
2022-10-29T03:12:53.616Z,7.97
2022-10-29T03:13:05.931Z,7.97
2022-10-29T03:13:18.675Z,6.82
2022-10-29T03:13:30.788Z,7.53
2022-10-29T03:13:43.216Z,6.97
2022-10-29T03:13:55.400Z,6.22
2022-10-29T03:14:07.496Z,6.65
2022-10-29T03:14:21.859Z,7.88
2022-10-29T03:14:34.139Z,7.22
2022-10-29T03:14:46.171Z,7.30
2022-10-29T03:14:58.372Z,10.10
2022-10-29T03:15:10.766Z,9.02
2022-10-29T03:15:22.873Z,8.30
2022-10-29T03:15:34.934Z,6.63
2022-10-29T03:15:46.973Z,6.38
2022-10-29T03:16:01.148Z,7.43
2022-10-29T03:16:13.252Z,7.15
2022-10-29T03:16:26.559Z,6.40
2022-10-29T03:16:38.649Z,7.40
2022-10-29T03:16:50.693Z,8.25
2022-10-29T03:17:02.740Z,7.82
2022-10-29T03:17:14.820Z,6.22
2022-10-29T03:17:26.898Z,4.97
2022-10-29T03:17:38.923Z,5.38
2022-10-29T03:17:50.984Z,6.32
2022-10-29T03:18:03.999Z,6.57
2022-10-29T03:18:16.075Z,6.32
2022-10-29T03:18:28.234Z,7.25
2022-10-29T03:18:40.307Z,8.30
2022-10-29T03:18:52.336Z,9.85
2022-10-29T03:19:04.437Z,8.23
2022-10-29T03:19:16.457Z,9.57
2022-10-29T03:19:28.555Z,10.75
2022-10-29T03:19:40.608Z,10.32
2022-10-29T03:19:52.611Z,9.68
2022-10-29T03:20:05.327Z,8.50
2022-10-29T03:20:17.521Z,7.00
2022-10-29T03:20:29.895Z,5.35
2022-10-29T03:20:42.927Z,5.55
2022-10-29T03:20:55.038Z,7.47
2022-10-29T03:21:07.098Z,9.05
2022-10-29T03:21:19.203Z,10.85
2022-10-29T03:21:31.269Z,9.88
2022-10-29T03:21:43.333Z,10.15
2022-10-29T03:21:55.386Z,7.35
2022-10-29T03:22:07.405Z,8.07
2022-10-29T03:22:19.482Z,9.93
2022-10-29T03:22:31.558Z,11.93
2022-10-29T03:22:43.598Z,10.27
2022-10-29T03:22:55.636Z,8.23
2022-10-29T03:23:07.643Z,6.40
2022-10-29T03:23:19.718Z,6.70
2022-10-29T03:23:32.022Z,6.22
2022-10-29T03:23:46.484Z,8.10
2022-10-29T03:23:58.585Z,8.65
2022-10-29T03:24:10.670Z,7.95
2022-10-29T03:24:22.756Z,9.38
2022-10-29T03:24:34.846Z,9.65
2022-10-29T03:24:49.276Z,10.95
2022-10-29T03:25:01.401Z,12.15
2022-10-29T03:25:13.483Z,12.68
2022-10-29T03:25:25.603Z,9.52
2022-10-29T03:25:37.603Z,7.20
2022-10-29T03:25:55.599Z,6.88
2022-10-29T03:26:10.769Z,8.25
2022-10-29T03:26:22.945Z,7.65
2022-10-29T03:26:35.040Z,7.68
2022-10-29T03:26:47.233Z,11.07
2022-10-29T03:26:59.256Z,11.20